GreenTxt   -   no warnings

Nearby METAR Reports

 

ENZV - Stavanger
Päivitetty: 18/10/2017 18:20
Few clouds
Few clouds
 Tuulen suunta KO
Tuuli: KO 6 km/h
Lämpötila: 11°C
Kastepiste: 8°C
Kosteus: 82%
Ilmanpaine: 1015 hPa
Clouds: Few clouds
Visibility: 10 km
2017/10/18 16:20 ENZV 181620Z 04003KT 9999 FEW025 11/08 Q1015 NOSIG
ENBR - Bergen
Päivitetty: 18/10/2017 18:20
Selkeätä
Selkeätä
 Tuulen suunta EKA
Tuuli: EKA 4 km/h
Lämpötila: 11°C
Kastepiste: 4°C
Kosteus: 62%
Ilmanpaine: 1015 hPa
Yhteenveto: Selkeätä
Visibility: greater than 10 km
2017/10/18 16:20 ENBR 181620Z 16002KT CAVOK 11/04 Q1015 NOSIG RMK WIND 1200FT 14008KT
 
ENHD - Haugesund
Päivitetty: 18/10/2017 18:20
Few clouds
Few clouds
 Tuulen suunta calm
Tuuli: Tyyntä
Lämpötila: 10°C
Kastepiste: 9°C
Kosteus: 94%
Ilmanpaine: 1015 hPa
Clouds: Few clouds
Visibility: 10 km
2017/10/18 16:20 ENHD 181620Z 00000KT 9999 FEW025 10/09 Q1015
ENCN - Kristiansand
Päivitetty: 18/10/2017 18:20
Selkeätä
Selkeätä
 Tuulen suunta KO
Tuuli: KO 13 km/h
Lämpötila: 8°C
Wind Chill: 6°C
Kastepiste: 2°C
Kosteus: 66%
Ilmanpaine: 1016 hPa
Yhteenveto: Selkeätä
Visibility: greater than 10 km
2017/10/18 16:20 ENCN 181620Z 04007KT CAVOK 08/02 Q1016
 
ENBO - Bodø
Päivitetty: 18/10/2017 18:20
Enimmäkseen pilvistä
Enimmäkseen pilvistä
 Tuulen suunta PLU
Tuuli: PLU 24 km/h
Lämpötila: 8°C
Wind Chill: 4°C
Kastepiste: 3°C
Kosteus: 71%
Ilmanpaine: 1011 hPa
Clouds: Enimmäkseen pilvistä
Visibility: 10 km
2017/10/18 16:20 ENBO 181620Z 33013KT 9999 FEW015TCU BKN030 08/03 Q1011 NOSIG
ENKR - Kirkenes
Päivitetty: 18/10/2017 17:50
Light rain, mostly cloudy
Light rain, mostly cloudy
 Tuulen suunta IKO
Tuuli: IKO 15 km/h
Lämpötila: 3°C
Wind Chill: -1°C
Kastepiste: 1°C
Kosteus: 87%
Ilmanpaine: 1004 hPa
Yhteenveto: Heikkoa sadetta
Clouds: Enimmäkseen pilvistä
Visibility: 10 km
2017/10/18 15:50 ENKR 181550Z 06008KT 9999 -RA FEW011 SCT016 BKN023 03/01 Q1004 RMK WIND 731FT 06019KT
 
ENVA - Trondheim
Päivitetty: 18/10/2017 18:20
Enimmäkseen pilvistä
Enimmäkseen pilvistä
 Tuulen suunta LLU
Tuuli: LLU 26 km/h
Lämpötila: 9°C
Wind Chill: 6°C
Kastepiste: 4°C
Kosteus: 71%
Clouds: Enimmäkseen pilvistä
Visibility: 10 km
2017/10/18 16:20 ENVA 181620Z 30014KT 9999 SCT025CB BKN035 09/04 TEMPO 28015G25KT SHRA Q1016 RMK WIND 670FT 29014KT
ENGM - Oslo
Päivitetty: 18/10/2017 18:20
Selkeätä
Selkeätä
 Tuulen suunta LU
Tuuli: LU 6 km/h
Lämpötila: 7°C
Kastepiste: 0°C
Kosteus: 61%
Ilmanpaine: 1016 hPa
Yhteenveto: Selkeätä
Visibility: greater than 10 km
2017/10/18 16:20 ENGM 181620Z 32003KT CAVOK 07/M00 Q1016 NOSIG